Time;durP1;ratioP1;P1;durP2;ratioP2;P2;SDS_P1;SDS_P2;PMS_P1;PMS_P2;Temp;Humidity;BMP_temperature;BMP_pressure;BME280_temperature;BME280_humidity;BME280_pressure;Samples;Min_cycle;Max_cycle;Signal;HPM_P1;HPM_P2
2023/06/21 00:00:12;;;;;;;18.25;5.80;;;;;;;;;;10036199;29;20103;-67
2023/06/21 00:05:09;;;;;;;225.27;19.40;;;;;;;;;;10034964;29;20520;-67
2023/06/21 00:10:07;;;;;;;10.13;5.63;;;;;;;;;;10034345;29;20513;-68
2023/06/21 00:15:04;;;;;;;7.13;4.95;;;;;;;;;;10032072;29;20048;-68
2023/06/21 00:20:00;;;;;;;12.43;5.93;;;;;;;;;;10035338;29;20055;-69
2023/06/21 00:24:57;;;;;;;9.57;5.28;;;;;;;;;;10033710;29;20047;-67
2023/06/21 00:29:53;;;;;;;8.20;5.20;;;;;;;;;;10031207;29;20039;-68
2023/06/21 00:34:52;;;;;;;9.38;4.70;;;;;;;;;;10028979;29;20079;-68
2023/06/21 00:39:48;;;;;;;7.05;4.28;;;;;;;;;;10033485;29;20122;-68
2023/06/21 00:44:44;;;;;;;8.80;4.22;;;;;;;;;;10032853;29;20064;-68
2023/06/21 00:49:41;;;;;;;10.15;5.20;;;;;;;;;;10033687;29;20076;-68
2023/06/21 00:54:37;;;;;;;7.57;4.70;;;;;;;;;;10025226;29;20067;-68
2023/06/21 00:59:35;;;;;;;7.22;4.60;;;;;;;;;;10031419;29;20107;-68
2023/06/21 01:04:33;;;;;;;9.15;5.00;;;;;;;;;;10030183;29;20135;-68
2023/06/21 01:09:40;;;;;;;5.72;4.28;;;;;;;;;;10032694;29;20598;-68
2023/06/21 01:14:44;;;;;;;5.65;4.53;;;;;;;;;;10025649;29;20048;-68
2023/06/21 01:19:50;;;;;;;7.95;4.47;;;;;;;;;;10024796;29;20078;-71
2023/06/21 01:24:53;;;;;;;7.80;4.75;;;;;;;;;;10022987;29;20043;-71
2023/06/21 01:29:55;;;;;;;7.18;4.60;;;;;;;;;;10025773;29;20075;-70
2023/06/21 01:34:53;;;;;;;8.48;5.22;;;;;;;;;;10031190;29;20079;-68
2023/06/21 01:39:50;;;;;;;6.30;4.90;;;;;;;;;;10023314;29;20418;-68
2023/06/21 01:44:47;;;;;;;4.97;4.43;;;;;;;;;;10030126;29;20062;-69
2023/06/21 01:49:43;;;;;;;7.10;5.43;;;;;;;;;;10030254;29;20134;-70
2023/06/21 01:54:40;;;;;;;5.82;5.05;;;;;;;;;;10031226;29;20079;-69
2023/06/21 01:59:37;;;;;;;8.38;5.25;;;;;;;;;;10024252;29;20061;-69
2023/06/21 02:04:33;;;;;;;6.20;4.97;;;;;;;;;;10029818;29;20421;-68
2023/06/21 02:09:30;;;;;;;7.53;5.50;;;;;;;;;;10027209;29;20111;-69
2023/06/21 02:14:27;;;;;;;7.30;5.25;;;;;;;;;;10029715;29;20047;-68
2023/06/21 02:19:24;;;;;;;6.75;5.60;;;;;;;;;;10028255;29;20058;-68
2023/06/21 02:24:21;;;;;;;7.50;6.40;;;;;;;;;;10030674;29;20050;-68
2023/06/21 02:29:17;;;;;;;10.07;6.40;;;;;;;;;;10023533;29;20486;-67
2023/06/21 02:34:14;;;;;;;8.85;5.95;;;;;;;;;;10037234;29;20541;-66
2023/06/21 02:39:10;;;;;;;6.65;5.43;;;;;;;;;;10032696;29;20043;-67
2023/06/21 02:44:06;;;;;;;9.55;6.15;;;;;;;;;;10035428;29;20055;-67
2023/06/21 02:49:03;;;;;;;7.78;5.65;;;;;;;;;;10031778;29;20063;-67
2023/06/21 02:53:59;;;;;;;5.53;5.03;;;;;;;;;;10036688;29;20043;-67
2023/06/21 02:58:56;;;;;;;7.22;5.95;;;;;;;;;;10033802;29;20456;-67
2023/06/21 03:03:52;;;;;;;7.43;6.22;;;;;;;;;;10032490;29;20482;-67
2023/06/21 03:08:51;;;;;;;7.05;6.43;;;;;;;;;;10028757;29;20128;-67
2023/06/21 03:13:47;;;;;;;7.07;6.38;;;;;;;;;;10030894;29;20425;-67
2023/06/21 03:18:43;;;;;;;7.85;7.05;;;;;;;;;;10031301;29;20517;-68
2023/06/21 03:23:40;;;;;;;7.75;7.05;;;;;;;;;;10034969;29;20051;-69
2023/06/21 03:28:36;;;;;;;10.13;6.93;;;;;;;;;;10028598;29;20545;-70
2023/06/21 03:33:32;;;;;;;8.77;7.88;;;;;;;;;;10033290;29;20122;-69
2023/06/21 03:38:29;;;;;;;8.32;7.63;;;;;;;;;;10026859;29;20044;-70
2023/06/21 03:43:26;;;;;;;7.70;6.75;;;;;;;;;;10032226;29;20055;-69
2023/06/21 03:48:22;;;;;;;9.93;8.93;;;;;;;;;;10029475;29;20506;-69
2023/06/21 03:53:18;;;;;;;9.73;8.63;;;;;;;;;;10026779;29;20051;-70
2023/06/21 03:58:15;;;;;;;8.45;7.65;;;;;;;;;;10024648;29;20501;-69
2023/06/21 04:03:14;;;;;;;11.05;8.60;;;;;;;;;;10029261;29;20053;-69
2023/06/21 04:08:10;;;;;;;10.80;9.70;;;;;;;;;;10004012;29;20051;-69
2023/06/21 04:13:07;;;;;;;11.07;9.50;;;;;;;;;;10012115;29;20079;-69
2023/06/21 04:18:06;;;;;;;11.13;9.38;;;;;;;;;;10010441;29;20055;-69
2023/06/21 04:23:03;;;;;;;11.25;9.38;;;;;;;;;;10009726;29;20059;-69
2023/06/21 04:27:59;;;;;;;13.70;10.98;;;;;;;;;;10008528;29;20044;-69
2023/06/21 04:32:55;;;;;;;11.85;10.57;;;;;;;;;;9995375;29;20055;-69
2023/06/21 04:37:52;;;;;;;11.95;10.18;;;;;;;;;;10012315;29;20060;-68
2023/06/21 04:42:54;;;;;;;13.05;11.85;;;;;;;;;;10030581;29;20044;-69
2023/06/21 04:47:52;;;;;;;12.10;11.00;;;;;;;;;;10024716;29;20486;-68
2023/06/21 04:52:50;;;;;;;12.52;11.38;;;;;;;;;;10019907;29;20777;-68
2023/06/21 04:57:47;;;;;;;11.88;9.57;;;;;;;;;;10028077;29;20051;-68
2023/06/21 05:02:45;;;;;;;12.95;11.70;;;;;;;;;;10030580;29;20057;-68
2023/06/21 05:07:41;;;;;;;11.70;10.60;;;;;;;;;;10030946;29;20054;-68
2023/06/21 05:12:38;;;;;;;13.32;12.13;;;;;;;;;;10022768;29;20052;-68
2023/06/21 05:17:35;;;;;;;14.82;13.18;;;;;;;;;;10025659;29;20118;-67
2023/06/21 05:22:31;;;;;;;14.05;12.75;;;;;;;;;;10023101;29;20405;-68
2023/06/21 05:27:28;;;;;;;16.15;14.52;;;;;;;;;;10028684;29;20058;-68
2023/06/21 05:32:27;;;;;;;17.00;14.93;;;;;;;;;;10030364;29;20039;-68
2023/06/21 05:37:24;;;;;;;19.35;15.48;;;;;;;;;;10026466;29;20546;-69
2023/06/21 05:42:20;;;;;;;21.58;18.17;;;;;;;;;;10013120;29;20099;-69
2023/06/21 05:47:16;;;;;;;20.48;18.45;;;;;;;;;;10025250;29;20055;-68
2023/06/21 05:52:13;;;;;;;25.38;20.38;;;;;;;;;;10030928;29;20075;-69
2023/06/21 05:57:09;;;;;;;29.35;23.25;;;;;;;;;;10006781;29;20055;-68
2023/06/21 06:02:06;;;;;;;23.05;19.92;;;;;;;;;;10027656;29;20075;-68
2023/06/21 06:07:05;;;;;;;26.00;20.80;;;;;;;;;;10034134;29;20095;-68
2023/06/21 06:12:01;;;;;;;28.80;25.27;;;;;;;;;;10029395;29;20048;-68
2023/06/21 06:16:58;;;;;;;25.75;23.02;;;;;;;;;;10033632;29;20514;-68
2023/06/21 06:21:56;;;;;;;30.08;25.75;;;;;;;;;;10037016;29;20107;-68
2023/06/21 06:26:53;;;;;;;32.55;27.08;;;;;;;;;;10037069;29;20074;-68
2023/06/21 06:31:51;;;;;;;33.10;29.40;;;;;;;;;;10034872;29;20082;-68
2023/06/21 06:36:49;;;;;;;33.58;27.83;;;;;;;;;;10035767;29;20063;-68
2023/06/21 06:42:10;;;;;;;30.10;26.60;;;;;;;;;;10021934;29;20044;-68
2023/06/21 06:47:07;;;;;;;31.93;27.90;;;;;;;;;;10030180;29;20056;-68
2023/06/21 06:52:05;;;;;;;28.63;25.60;;;;;;;;;;10034980;29;20135;-68
2023/06/21 06:57:01;;;;;;;33.42;25.77;;;;;;;;;;10031419;29;20043;-67
2023/06/21 07:01:58;;;;;;;27.05;24.05;;;;;;;;;;10031519;29;20462;-68
2023/06/21 07:06:54;;;;;;;27.80;24.92;;;;;;;;;;10033593;29;20054;-68
2023/06/21 07:11:51;;;;;;;26.45;23.63;;;;;;;;;;10029926;29;20433;-68
2023/06/21 07:16:49;;;;;;;27.58;24.65;;;;;;;;;;10033883;29;20094;-68
2023/06/21 07:21:45;;;;;;;25.92;23.13;;;;;;;;;;10035125;29;20450;-68
2023/06/21 07:26:41;;;;;;;26.95;24.35;;;;;;;;;;10032328;29;20215;-69
2023/06/21 07:31:38;;;;;;;27.63;24.77;;;;;;;;;;10034517;29;20482;-68
2023/06/21 07:36:34;;;;;;;26.00;23.60;;;;;;;;;;10031224;29;20498;-68
2023/06/21 07:41:30;;;;;;;25.02;22.63;;;;;;;;;;10029654;29;20055;-68
2023/06/21 07:46:27;;;;;;;24.00;21.45;;;;;;;;;;10030981;29;20040;-68
2023/06/21 07:51:23;;;;;;;22.73;20.52;;;;;;;;;;10029091;29;20462;-68
2023/06/21 07:56:20;;;;;;;22.88;20.73;;;;;;;;;;10032394;29;20053;-68
2023/06/21 08:01:16;;;;;;;26.27;23.70;;;;;;;;;;10032675;29;20052;-68
2023/06/21 08:06:12;;;;;;;24.30;22.08;;;;;;;;;;10032167;29;20056;-68
2023/06/21 08:11:09;;;;;;;26.35;23.65;;;;;;;;;;10029528;29;20099;-68
2023/06/21 08:16:05;;;;;;;24.77;22.27;;;;;;;;;;10008036;29;20548;-67
2023/06/21 08:21:03;;;;;;;26.52;24.00;;;;;;;;;;10030567;29;20074;-68
2023/06/21 08:25:59;;;;;;;25.17;22.83;;;;;;;;;;10029181;29;20116;-67
2023/06/21 08:30:56;;;;;;;24.38;22.13;;;;;;;;;;10027325;29;20067;-68
2023/06/21 08:35:52;;;;;;;20.73;18.80;;;;;;;;;;10030919;29;20048;-68
2023/06/21 08:40:49;;;;;;;18.38;16.58;;;;;;;;;;10033005;29;20143;-67
2023/06/21 08:45:45;;;;;;;15.68;14.13;;;;;;;;;;10029784;29;20114;-68
2023/06/21 08:50:43;;;;;;;17.83;16.02;;;;;;;;;;10032201;29;20044;-68
2023/06/21 08:55:39;;;;;;;20.63;15.00;;;;;;;;;;10027918;29;20050;-68
2023/06/21 09:00:43;;;;;;;17.67;15.23;;;;;;;;;;10031323;29;20122;-68
2023/06/21 09:06:08;;;;;;;14.40;12.88;;;;;;;;;;10031239;29;20063;-69
2023/06/21 09:11:05;;;;;;;14.55;13.25;;;;;;;;;;10022770;29;20040;-68
2023/06/21 09:16:05;;;;;;;14.68;13.15;;;;;;;;;;10030683;29;20079;-68
2023/06/21 09:21:01;;;;;;;13.85;12.45;;;;;;;;;;10026562;29;20418;-68
2023/06/21 09:25:58;;;;;;;12.70;11.40;;;;;;;;;;10030626;29;20058;-68
2023/06/21 09:30:54;;;;;;;14.30;12.75;;;;;;;;;;10027524;29;20051;-68
2023/06/21 09:35:51;;;;;;;13.80;12.52;;;;;;;;;;10030383;29;20088;-68
2023/06/21 09:40:47;;;;;;;14.65;11.45;;;;;;;;;;10030862;29;20063;-67
2023/06/21 09:45:57;;;;;;;14.20;12.80;;;;;;;;;;10018796;29;20544;-68
2023/06/21 09:50:55;;;;;;;13.80;12.57;;;;;;;;;;10037965;29;20051;-69
2023/06/21 09:55:51;;;;;;;13.10;11.77;;;;;;;;;;10036849;29;20510;-68
2023/06/21 10:00:50;;;;;;;13.50;12.20;;;;;;;;;;10034868;29;20070;-68
2023/06/21 10:05:54;;;;;;;15.13;13.57;;;;;;;;;;10019605;29;20062;-68
2023/06/21 10:10:50;;;;;;;13.35;12.05;;;;;;;;;;10037419;29;20067;-68
2023/06/21 10:15:46;;;;;;;17.77;13.88;;;;;;;;;;10036934;29;20055;-68
2023/06/21 10:20:43;;;;;;;13.75;12.40;;;;;;;;;;10037920;29;20692;-68
2023/06/21 10:25:40;;;;;;;15.00;13.45;;;;;;;;;;10031592;29;20040;-68
2023/06/21 10:30:38;;;;;;;14.05;12.73;;;;;;;;;;10036874;29;20058;-68
2023/06/21 10:35:35;;;;;;;13.85;12.65;;;;;;;;;;10016379;29;20530;-68
2023/06/21 10:40:35;;;;;;;15.57;13.98;;;;;;;;;;10037118;29;20430;-68
2023/06/21 10:45:33;;;;;;;13.07;11.77;;;;;;;;;;10030939;29;20048;-68
2023/06/21 10:50:29;;;;;;;12.80;11.55;;;;;;;;;;10032189;28;20062;-68
2023/06/21 10:55:29;;;;;;;12.75;11.43;;;;;;;;;;10039372;29;20083;-68
2023/06/21 11:00:26;;;;;;;12.02;10.80;;;;;;;;;;10035875;29;20048;-68
2023/06/21 11:05:24;;;;;;;13.30;11.40;;;;;;;;;;10035242;29;20114;-68
2023/06/21 11:10:38;;;;;;;12.30;11.10;;;;;;;;;;10034119;29;20055;-68
2023/06/21 11:15:37;;;;;;;12.27;11.13;;;;;;;;;;10035044;29;20134;-68
2023/06/21 11:20:56;;;;;;;14.10;12.00;;;;;;;;;;10032156;29;20111;-68
2023/06/21 11:25:53;;;;;;;11.80;10.70;;;;;;;;;;10032670;29;20072;-68
2023/06/21 11:31:07;;;;;;;12.75;11.05;;;;;;;;;;10034562;29;20093;-68
2023/06/21 11:36:07;;;;;;;11.73;10.63;;;;;;;;;;10007452;29;20126;-68
2023/06/21 11:41:23;;;;;;;10.20;9.20;;;;;;;;;;10034715;29;20110;-68
2023/06/21 11:46:24;;;;;;;10.50;9.38;;;;;;;;;;10032791;29;20410;-68
2023/06/21 11:51:20;;;;;;;12.30;10.38;;;;;;;;;;10034006;29;20103;-68
2023/06/21 11:56:18;;;;;;;10.27;9.27;;;;;;;;;;10013227;29;20051;-68
2023/06/21 12:01:15;;;;;;;10.18;9.20;;;;;;;;;;10032270;29;20099;-68
2023/06/21 12:06:12;;;;;;;11.25;10.00;;;;;;;;;;10032179;29;20513;-68
2023/06/21 12:11:09;;;;;;;12.05;9.48;;;;;;;;;;10032957;29;20044;-68
2023/06/21 12:16:06;;;;;;;14.50;11.27;;;;;;;;;;10031322;29;20514;-68
2023/06/21 12:21:05;;;;;;;12.93;10.85;;;;;;;;;;10017399;29;20051;-68
2023/06/21 12:26:05;;;;;;;12.05;10.85;;;;;;;;;;10025166;29;20284;-68
2023/06/21 12:31:01;;;;;;;11.20;10.10;;;;;;;;;;10028597;29;20050;-68
2023/06/21 12:36:12;;;;;;;10.20;9.30;;;;;;;;;;10027099;29;20059;-68
2023/06/21 12:41:08;;;;;;;9.05;8.25;;;;;;;;;;10025064;29;20039;-68
2023/06/21 12:46:05;;;;;;;9.98;8.98;;;;;;;;;;10031634;29;20115;-68
2023/06/21 12:51:03;;;;;;;9.00;8.10;;;;;;;;;;10025138;29;20501;-68
2023/06/21 12:56:05;;;;;;;8.23;7.53;;;;;;;;;;10013388;29;20051;-68
2023/06/21 13:01:02;;;;;;;10.00;8.52;;;;;;;;;;10029783;29;20099;-68
2023/06/21 13:06:02;;;;;;;8.88;7.72;;;;;;;;;;10029326;29;20044;-68
2023/06/21 13:10:59;;;;;;;9.55;8.40;;;;;;;;;;10031828;29;20099;-68
2023/06/21 13:15:58;;;;;;;8.88;8.07;;;;;;;;;;10027854;29;20070;-68
2023/06/21 13:20:58;;;;;;;10.00;9.02;;;;;;;;;;10029699;29;20050;-68
2023/06/21 13:25:55;;;;;;;10.07;8.10;;;;;;;;;;10030650;29;20162;-68
2023/06/21 13:30:51;;;;;;;9.05;7.97;;;;;;;;;;10027667;29;20090;-68
2023/06/21 13:35:50;;;;;;;8.32;7.38;;;;;;;;;;10029131;29;20051;-68
2023/06/21 13:40:47;;;;;;;8.07;7.38;;;;;;;;;;10021993;29;20052;-68
2023/06/21 13:45:43;;;;;;;8.43;7.65;;;;;;;;;;10029970;29;20048;-68
2023/06/21 13:50:40;;;;;;;8.68;7.72;;;;;;;;;;10028249;29;20048;-68
2023/06/21 13:55:36;;;;;;;8.45;7.63;;;;;;;;;;10025519;29;20138;-69
2023/06/21 14:00:33;;;;;;;7.80;7.10;;;;;;;;;;10025914;29;20427;-68
2023/06/21 14:05:30;;;;;;;7.65;6.85;;;;;;;;;;10010357;29;20103;-68
2023/06/21 14:10:26;;;;;;;8.02;7.32;;;;;;;;;;10030569;29;20058;-68
2023/06/21 14:15:23;;;;;;;7.10;6.50;;;;;;;;;;10028160;29;20052;-69
2023/06/21 14:20:21;;;;;;;7.75;7.03;;;;;;;;;;10013487;29;20711;-69
2023/06/21 14:25:18;;;;;;;7.30;6.70;;;;;;;;;;10009221;29;20048;-68
2023/06/21 14:30:14;;;;;;;7.80;7.10;;;;;;;;;;10037418;29;20044;-69
2023/06/21 14:35:11;;;;;;;7.28;6.57;;;;;;;;;;10018970;29;20055;-68
2023/06/21 14:40:07;;;;;;;6.88;6.18;;;;;;;;;;10033114;29;20082;-68
2023/06/21 14:45:04;;;;;;;7.13;6.53;;;;;;;;;;10019477;29;20044;-68
2023/06/21 14:50:03;;;;;;;7.22;6.55;;;;;;;;;;10036212;29;20048;-69
2023/06/21 14:54:59;;;;;;;7.18;6.55;;;;;;;;;;10036860;29;20099;-68
2023/06/21 14:59:56;;;;;;;6.72;6.13;;;;;;;;;;10038394;29;20044;-68
2023/06/21 15:04:52;;;;;;;7.13;6.53;;;;;;;;;;10024073;29;20143;-68
2023/06/21 15:09:50;;;;;;;7.03;6.28;;;;;;;;;;10031919;29;20047;-68
2023/06/21 15:14:47;;;;;;;6.65;6.05;;;;;;;;;;10025814;29;20044;-67
2023/06/21 15:19:43;;;;;;;6.97;6.28;;;;;;;;;;10032225;29;20059;-68
2023/06/21 15:24:41;;;;;;;6.93;6.32;;;;;;;;;;10032876;29;20056;-68
2023/06/21 15:29:37;;;;;;;6.70;6.10;;;;;;;;;;10027806;29;20090;-68
2023/06/21 15:34:33;;;;;;;6.75;6.03;;;;;;;;;;10035325;29;20077;-69
2023/06/21 15:39:30;;;;;;;7.28;6.68;;;;;;;;;;10024717;29;20071;-67
2023/06/21 15:44:27;;;;;;;6.57;5.97;;;;;;;;;;10034702;29;20055;-68
2023/06/21 15:49:23;;;;;;;6.68;6.07;;;;;;;;;;10030586;29;20458;-69
2023/06/21 15:54:20;;;;;;;7.30;6.70;;;;;;;;;;10031535;29;20051;-69
2023/06/21 15:59:16;;;;;;;9.10;7.03;;;;;;;;;;10034559;29;20506;-68
2023/06/21 16:04:12;;;;;;;7.25;6.65;;;;;;;;;;10030773;29;20059;-68
2023/06/21 16:09:09;;;;;;;7.60;6.88;;;;;;;;;;10026389;29;20070;-68
2023/06/21 16:14:05;;;;;;;7.30;6.72;;;;;;;;;;10033035;29;20079;-68
2023/06/21 16:19:02;;;;;;;8.18;7.45;;;;;;;;;;10033063;29;20058;-68
2023/06/21 16:23:58;;;;;;;7.10;6.50;;;;;;;;;;10028016;29;20048;-68
2023/06/21 16:28:55;;;;;;;7.63;6.75;;;;;;;;;;10030351;29;20658;-68
2023/06/21 16:33:51;;;;;;;8.30;7.50;;;;;;;;;;10025355;29;20119;-70
2023/06/21 16:38:47;;;;;;;7.72;7.13;;;;;;;;;;10030558;29;20754;-68
2023/06/21 16:43:44;;;;;;;8.77;8.07;;;;;;;;;;10019324;29;20105;-68
2023/06/21 16:48:46;;;;;;;8.13;7.43;;;;;;;;;;10027529;29;20063;-68
2023/06/21 16:53:46;;;;;;;8.43;7.72;;;;;;;;;;10025737;29;20063;-68
2023/06/21 16:58:42;;;;;;;8.23;7.53;;;;;;;;;;10010284;29;20055;-68
2023/06/21 17:03:38;;;;;;;8.80;8.10;;;;;;;;;;10009596;29;20047;-68
2023/06/21 17:08:38;;;;;;;8.45;7.75;;;;;;;;;;10000659;29;20056;-67
2023/06/21 17:13:34;;;;;;;9.15;8.25;;;;;;;;;;10007406;29;20051;-68
2023/06/21 17:18:31;;;;;;;9.63;8.82;;;;;;;;;;10004330;29;20055;-68
2023/06/21 17:23:30;;;;;;;9.15;8.35;;;;;;;;;;10008022;29;20090;-67
2023/06/21 17:28:27;;;;;;;8.10;7.45;;;;;;;;;;10030001;29;20509;-67
2023/06/21 17:33:23;;;;;;;7.78;7.15;;;;;;;;;;10020143;29;20430;-67
2023/06/21 17:38:20;;;;;;;7.88;7.28;;;;;;;;;;10022935;29;20111;-68
2023/06/21 17:43:17;;;;;;;12.60;11.00;;;;;;;;;;10029447;29;20486;-68
2023/06/21 17:48:13;;;;;;;10.77;9.77;;;;;;;;;;10031788;29;20048;-68
2023/06/21 17:53:14;;;;;;;7.70;7.10;;;;;;;;;;10011762;29;20043;-67
2023/06/21 17:58:10;;;;;;;7.50;6.80;;;;;;;;;;10027571;29;20063;-74
2023/06/21 18:03:07;;;;;;;7.70;7.00;;;;;;;;;;10020369;29;20591;-72
2023/06/21 18:08:06;;;;;;;7.82;7.22;;;;;;;;;;10036433;29;20575;-74
2023/06/21 18:13:05;;;;;;;8.35;7.65;;;;;;;;;;10013364;29;20575;-74
2023/06/21 18:18:02;;;;;;;8.43;7.25;;;;;;;;;;10012662;29;20502;-73
2023/06/21 18:22:58;;;;;;;7.75;7.15;;;;;;;;;;10039683;29;20056;-75
2023/06/21 18:27:55;;;;;;;7.47;6.75;;;;;;;;;;10031088;29;20065;-74
2023/06/21 18:32:52;;;;;;;7.40;6.43;;;;;;;;;;10030682;29;20079;-73
2023/06/21 18:37:48;;;;;;;8.20;7.50;;;;;;;;;;10028862;29;20070;-72
2023/06/21 18:42:44;;;;;;;8.07;7.18;;;;;;;;;;10033399;29;20052;-74
2023/06/21 18:47:41;;;;;;;7.88;7.18;;;;;;;;;;10033772;29;20051;-73
2023/06/21 18:52:37;;;;;;;8.40;7.43;;;;;;;;;;10029223;29;20792;-73
2023/06/21 18:57:34;;;;;;;7.32;6.63;;;;;;;;;;10037470;29;20055;-73
2023/06/21 19:02:31;;;;;;;8.32;6.43;;;;;;;;;;10029457;29;20048;-72
2023/06/21 19:07:27;;;;;;;6.78;6.18;;;;;;;;;;10028484;29;20703;-72
2023/06/21 19:12:24;;;;;;;7.25;6.55;;;;;;;;;;10031142;29;20044;-71
2023/06/21 19:17:20;;;;;;;6.93;6.32;;;;;;;;;;10032520;29;20054;-73
2023/06/21 19:22:17;;;;;;;6.82;5.80;;;;;;;;;;10030137;29;20074;-73
2023/06/21 19:27:14;;;;;;;7.00;6.30;;;;;;;;;;10027923;29;20130;-73
2023/06/21 19:32:10;;;;;;;6.93;6.28;;;;;;;;;;10032278;29;20288;-73
2023/06/21 19:37:10;;;;;;;6.82;6.22;;;;;;;;;;10028206;29;20086;-73
2023/06/21 19:42:06;;;;;;;7.43;6.57;;;;;;;;;;10033396;29;20048;-73
2023/06/21 19:47:03;;;;;;;8.57;7.82;;;;;;;;;;10030901;29;20051;-74
2023/06/21 19:52:00;;;;;;;7.40;6.70;;;;;;;;;;10039023;29;20053;-73
2023/06/21 19:56:56;;;;;;;6.93;6.32;;;;;;;;;;10030321;29;20134;-73
2023/06/21 20:01:53;;;;;;;7.25;6.55;;;;;;;;;;10029526;29;20506;-71
2023/06/21 20:06:49;;;;;;;6.90;6.20;;;;;;;;;;10029484;29;20047;-75
2023/06/21 20:11:45;;;;;;;6.57;5.65;;;;;;;;;;10027818;29;20103;-75
2023/06/21 20:16:42;;;;;;;7.45;5.63;;;;;;;;;;10032304;29;20066;-75
2023/06/21 20:21:38;;;;;;;7.03;6.00;;;;;;;;;;10021718;29;20142;-74
2023/06/21 20:26:35;;;;;;;6.85;6.25;;;;;;;;;;10024476;29;20128;-73
2023/06/21 20:31:32;;;;;;;6.60;5.95;;;;;;;;;;10028043;29;20051;-73
2023/06/21 20:36:35;;;;;;;6.90;6.30;;;;;;;;;;10031674;29;20063;-73
2023/06/21 20:41:32;;;;;;;6.10;5.60;;;;;;;;;;10019197;29;20102;-72
2023/06/21 20:46:28;;;;;;;7.63;6.80;;;;;;;;;;10032676;29;20438;-72
2023/06/21 20:51:25;;;;;;;7.53;6.93;;;;;;;;;;10029026;29;20564;-72
2023/06/21 20:56:22;;;;;;;8.95;6.82;;;;;;;;;;10031877;29;20509;-72
2023/06/21 21:01:18;;;;;;;6.70;6.05;;;;;;;;;;10029468;29;20059;-71
2023/06/21 21:06:14;;;;;;;5.90;5.32;;;;;;;;;;10030102;29;20071;-72
2023/06/21 21:11:12;;;;;;;6.45;5.78;;;;;;;;;;10028300;29;20141;-72
2023/06/21 21:16:09;;;;;;;5.97;5.38;;;;;;;;;;10031082;29;20509;-72
2023/06/21 21:21:08;;;;;;;6.38;5.70;;;;;;;;;;10026791;29;20510;-72
2023/06/21 21:26:05;;;;;;;6.22;5.55;;;;;;;;;;10029060;29;20501;-72
2023/06/21 21:31:01;;;;;;;5.95;5.40;;;;;;;;;;10024811;29;20521;-72
2023/06/21 21:35:58;;;;;;;5.90;5.40;;;;;;;;;;10027662;29;20075;-73
2023/06/21 21:40:54;;;;;;;6.80;5.10;;;;;;;;;;10031603;29;20055;-73
2023/06/21 21:45:50;;;;;;;6.97;4.93;;;;;;;;;;10025454;29;20079;-75
2023/06/21 21:50:47;;;;;;;5.50;5.00;;;;;;;;;;10030528;29;20047;-73
2023/06/21 21:55:44;;;;;;;5.90;5.30;;;;;;;;;;10024641;29;20127;-71
2023/06/21 22:00:40;;;;;;;5.90;5.32;;;;;;;;;;10031122;29;20054;-71
2023/06/21 22:05:37;;;;;;;5.90;5.32;;;;;;;;;;10030356;29;20052;-71
2023/06/21 22:10:33;;;;;;;6.70;6.10;;;;;;;;;;10022048;29;20518;-72
2023/06/21 22:15:34;;;;;;;6.83;6.13;;;;;;;;;;10025449;29;20107;-73
2023/06/21 22:20:31;;;;;;;7.97;6.80;;;;;;;;;;10027959;29;20464;-75
2023/06/21 22:25:27;;;;;;;6.85;6.15;;;;;;;;;;10030553;29;20537;-75
2023/06/21 22:30:24;;;;;;;6.15;5.55;;;;;;;;;;10024650;29;20075;-74
2023/06/21 22:35:20;;;;;;;5.80;5.28;;;;;;;;;;10023830;29;20051;-72
2023/06/21 22:40:17;;;;;;;6.70;6.05;;;;;;;;;;10030257;29;20059;-72
2023/06/21 22:45:13;;;;;;;7.30;6.30;;;;;;;;;;10029688;29;20056;-72
2023/06/21 22:50:09;;;;;;;7.25;6.07;;;;;;;;;;10034647;29;20490;-73
2023/06/21 22:55:06;;;;;;;7.05;6.45;;;;;;;;;;10034517;29;20098;-75
2023/06/21 23:00:03;;;;;;;7.18;6.47;;;;;;;;;;10036455;29;20399;-73
2023/06/21 23:05:00;;;;;;;6.95;6.13;;;;;;;;;;10029442;29;20233;-74
2023/06/21 23:10:03;;;;;;;7.22;6.53;;;;;;;;;;10036055;29;20175;-73
2023/06/21 23:14:59;;;;;;;7.28;6.57;;;;;;;;;;10035207;29;20484;-74
2023/06/21 23:19:55;;;;;;;7.28;6.57;;;;;;;;;;10019205;29;20067;-74
2023/06/21 23:24:52;;;;;;;7.97;7.28;;;;;;;;;;10029071;29;20498;-74
2023/06/21 23:29:49;;;;;;;7.65;6.90;;;;;;;;;;10029185;29;20055;-75
2023/06/21 23:34:45;;;;;;;7.95;7.20;;;;;;;;;;10012934;29;20094;-73
2023/06/21 23:39:53;;;;;;;9.63;7.50;;;;;;;;;;10034025;29;20106;-73
2023/06/21 23:44:50;;;;;;;8.60;7.75;;;;;;;;;;10034541;29;20079;-73
2023/06/21 23:49:47;;;;;;;8.13;7.32;;;;;;;;;;10031935;29;20518;-71
2023/06/21 23:54:43;;;;;;;8.10;7.35;;;;;;;;;;10017087;29;20057;-73
2023/06/21 23:59:39;;;;;;;8.98;8.07;;;;;;;;;;10028694;29;20090;-74
